sensor_id;sensor_type;location;lat;lon;timestamp;pressure;altitude;pressure_sealevel;temperature;humidity
9935;BME280;5006;41.828;23.478;2023-04-01T00:00:29;89648.94;;;10.90;nan
9935;BME280;5006;41.828;23.478;2023-04-01T00:01:34;89655.03;;;11.20;nan
9935;BME280;5006;41.828;23.478;2023-04-01T00:02:40;89649.94;;;11.29;nan
9935;BME280;5006;41.828;23.478;2023-04-01T00:03:46;89648.09;;;11.23;nan
9935;BME280;5006;41.828;23.478;2023-04-01T00:04:52;89650.97;;;11.35;nan
9935;BME280;5006;41.828;23.478;2023-04-01T00:05:58;89648.44;;;11.25;nan
9935;BME280;5006;41.828;23.478;2023-04-01T00:07:03;89652.25;;;11.01;nan
9935;BME280;5006;41.828;23.478;2023-04-01T00:08:09;89650.38;;;10.98;nan
9935;BME280;5006;41.828;23.478;2023-04-01T00:09:14;89653.31;;;11.07;nan
9935;BME280;5006;41.828;23.478;2023-04-01T00:10:19;89642.63;;;11.30;nan
9935;BME280;5006;41.828;23.478;2023-04-01T00:11:25;89642.09;;;11.15;nan
9935;BME280;5006;41.828;23.478;2023-04-01T00:12:31;89637.09;;;10.58;nan
9935;BME280;5006;41.828;23.478;2023-04-01T00:13:36;89629.25;;;10.44;nan
9935;BME280;5006;41.828;23.478;2023-04-01T00:14:42;89641.22;;;10.95;nan
9935;BME280;5006;41.828;23.478;2023-04-01T00:15:48;89652.34;;;11.47;nan
9935;BME280;5006;41.828;23.478;2023-04-01T00:16:54;89656.25;;;11.42;nan
9935;BME280;5006;41.828;23.478;2023-04-01T00:17:58;89656.06;;;11.53;nan
9935;BME280;5006;41.828;23.478;2023-04-01T00:19:04;89649.31;;;11.18;nan
9935;BME280;5006;41.828;23.478;2023-04-01T00:20:11;89647.94;;;11.33;nan
9935;BME280;5006;41.828;23.478;2023-04-01T00:21:17;89638.31;;;11.09;nan
9935;BME280;5006;41.828;23.478;2023-04-01T00:22:24;89647.50;;;11.12;nan
9935;BME280;5006;41.828;23.478;2023-04-01T00:23:29;89647.53;;;11.08;nan
9935;BME280;5006;41.828;23.478;2023-04-01T00:24:35;89643.72;;;10.79;nan
9935;BME280;5006;41.828;23.478;2023-04-01T00:25:40;89646.38;;;11.09;nan
9935;BME280;5006;41.828;23.478;2023-04-01T00:26:46;89646.03;;;11.07;nan
9935;BME280;5006;41.828;23.478;2023-04-01T00:27:51;89641.25;;;11.18;nan
9935;BME280;5006;41.828;23.478;2023-04-01T00:28:58;89645.88;;;11.18;nan
9935;BME280;5006;41.828;23.478;2023-04-01T00:30:04;89642.44;;;11.17;nan
9935;BME280;5006;41.828;23.478;2023-04-01T00:31:11;89646.06;;;10.77;nan
9935;BME280;5006;41.828;23.478;2023-04-01T00:32:17;89648.03;;;10.73;nan
9935;BME280;5006;41.828;23.478;2023-04-01T00:33:22;89645.81;;;10.65;nan
9935;BME280;5006;41.828;23.478;2023-04-01T00:34:28;89640.38;;;10.72;nan
9935;BME280;5006;41.828;23.478;2023-04-01T00:35:32;89639.19;;;10.76;nan
9935;BME280;5006;41.828;23.478;2023-04-01T00:36:38;89649.22;;;10.99;nan
9935;BME280;5006;41.828;23.478;2023-04-01T00:37:43;89640.75;;;11.27;nan
9935;BME280;5006;41.828;23.478;2023-04-01T00:38:49;89636.56;;;10.99;nan
9935;BME280;5006;41.828;23.478;2023-04-01T00:39:55;89632.31;;;11.28;nan
9935;BME280;5006;41.828;23.478;2023-04-01T00:41:01;89632.56;;;11.37;nan
9935;BME280;5006;41.828;23.478;2023-04-01T00:42:05;89632.06;;;11.19;nan
9935;BME280;5006;41.828;23.478;2023-04-01T00:43:12;89629.16;;;10.80;nan
9935;BME280;5006;41.828;23.478;2023-04-01T00:44:20;89624.97;;;11.06;nan
9935;BME280;5006;41.828;23.478;2023-04-01T00:45:32;89627.34;;;11.27;nan
9935;BME280;5006;41.828;23.478;2023-04-01T00:46:39;89622.75;;;11.27;nan
9935;BME280;5006;41.828;23.478;2023-04-01T00:47:45;89612.47;;;11.45;nan
9935;BME280;5006;41.828;23.478;2023-04-01T00:48:51;89614.91;;;11.13;nan
9935;BME280;5006;41.828;23.478;2023-04-01T00:49:59;89605.00;;;11.33;nan
9935;BME280;5006;41.828;23.478;2023-04-01T00:51:07;89608.94;;;11.75;nan
9935;BME280;5006;41.828;23.478;2023-04-01T00:52:16;89616.56;;;11.57;nan
9935;BME280;5006;41.828;23.478;2023-04-01T00:53:22;89614.50;;;11.64;nan
9935;BME280;5006;41.828;23.478;2023-04-01T00:54:30;89611.09;;;11.37;nan
9935;BME280;5006;41.828;23.478;2023-04-01T00:55:39;89616.28;;;10.98;nan
9935;BME280;5006;41.828;23.478;2023-04-01T00:56:49;89608.66;;;10.93;nan
9935;BME280;5006;41.828;23.478;2023-04-01T00:58:00;89608.25;;;11.21;nan
9935;BME280;5006;41.828;23.478;2023-04-01T00:59:08;89606.78;;;11.17;nan
9935;BME280;5006;41.828;23.478;2023-04-01T01:00:17;89617.06;;;11.22;nan
9935;BME280;5006;41.828;23.478;2023-04-01T01:01:22;89613.72;;;11.14;nan
9935;BME280;5006;41.828;23.478;2023-04-01T01:02:31;89626.28;;;11.21;nan
9935;BME280;5006;41.828;23.478;2023-04-01T01:03:37;89625.56;;;11.43;nan
9935;BME280;5006;41.828;23.478;2023-04-01T01:04:42;89618.41;;;11.83;nan
9935;BME280;5006;41.828;23.478;2023-04-01T01:06:03;89615.28;;;12.07;nan
9935;BME280;5006;41.828;23.478;2023-04-01T01:07:21;89615.19;;;11.68;nan
9935;BME280;5006;41.828;23.478;2023-04-01T01:08:40;89606.09;;;12.05;nan
9935;BME280;5006;41.828;23.478;2023-04-01T01:09:51;89615.16;;;12.14;nan
9935;BME280;5006;41.828;23.478;2023-04-01T01:11:01;89617.84;;;11.72;nan
9935;BME280;5006;41.828;23.478;2023-04-01T01:12:13;89614.44;;;11.18;nan
9935;BME280;5006;41.828;23.478;2023-04-01T01:13:24;89618.53;;;11.26;nan
9935;BME280;5006;41.828;23.478;2023-04-01T01:14:41;89613.97;;;11.73;nan
9935;BME280;5006;41.828;23.478;2023-04-01T01:15:54;89606.44;;;12.07;nan
9935;BME280;5006;41.828;23.478;2023-04-01T01:17:07;89599.56;;;12.25;nan
9935;BME280;5006;41.828;23.478;2023-04-01T01:18:19;89609.28;;;12.19;nan
9935;BME280;5006;41.828;23.478;2023-04-01T01:19:50;89599.28;;;12.00;nan
9935;BME280;5006;41.828;23.478;2023-04-01T01:21:13;89599.38;;;12.16;nan
9935;BME280;5006;41.828;23.478;2023-04-01T01:22:51;89597.75;;;11.99;nan
9935;BME280;5006;41.828;23.478;2023-04-01T01:24:30;89584.72;;;12.21;nan
9935;BME280;5006;41.828;23.478;2023-04-01T01:25:44;89565.97;;;12.72;nan
9935;BME280;5006;41.828;23.478;2023-04-01T01:27:01;89565.03;;;12.98;nan
9935;BME280;5006;41.828;23.478;2023-04-01T01:28:23;89561.38;;;12.53;nan
9935;BME280;5006;41.828;23.478;2023-04-01T01:29:42;89561.78;;;12.87;nan
9935;BME280;5006;41.828;23.478;2023-04-01T01:30:52;89560.78;;;12.26;nan
9935;BME280;5006;41.828;23.478;2023-04-01T01:32:09;89568.81;;;11.41;nan
9935;BME280;5006;41.828;23.478;2023-04-01T01:33:39;89568.88;;;11.84;nan
9935;BME280;5006;41.828;23.478;2023-04-01T01:36:07;89577.28;;;11.86;nan
9935;BME280;5006;41.828;23.478;2023-04-01T01:37:17;89574.66;;;11.82;nan
9935;BME280;5006;41.828;23.478;2023-04-01T01:38:26;89585.06;;;11.80;nan
9935;BME280;5006;41.828;23.478;2023-04-01T01:39:44;89580.34;;;12.07;nan
9935;BME280;5006;41.828;23.478;2023-04-01T01:40:51;89584.69;;;12.01;nan
9935;BME280;5006;41.828;23.478;2023-04-01T01:42:02;89593.22;;;11.73;nan
9935;BME280;5006;41.828;23.478;2023-04-01T01:43:12;89595.16;;;11.73;nan
9935;BME280;5006;41.828;23.478;2023-04-01T01:44:19;89599.47;;;11.90;nan
9935;BME280;5006;41.828;23.478;2023-04-01T01:45:26;89594.56;;;12.27;nan
9935;BME280;5006;41.828;23.478;2023-04-01T01:46:32;89586.84;;;12.10;nan
9935;BME280;5006;41.828;23.478;2023-04-01T01:47:38;89578.84;;;12.26;nan
9935;BME280;5006;41.828;23.478;2023-04-01T01:48:47;89583.72;;;12.50;nan
9935;BME280;5006;41.828;23.478;2023-04-01T01:49:54;89585.38;;;12.25;nan
9935;BME280;5006;41.828;23.478;2023-04-01T01:51:00;89591.44;;;12.29;nan
9935;BME280;5006;41.828;23.478;2023-04-01T01:52:07;89591.66;;;11.76;nan
9935;BME280;5006;41.828;23.478;2023-04-01T01:53:17;89596.44;;;11.65;nan
9935;BME280;5006;41.828;23.478;2023-04-01T01:54:22;89595.03;;;11.80;nan
9935;BME280;5006;41.828;23.478;2023-04-01T01:55:30;89588.19;;;11.98;nan
9935;BME280;5006;41.828;23.478;2023-04-01T01:56:36;89585.16;;;12.35;nan
9935;BME280;5006;41.828;23.478;2023-04-01T01:57:42;89581.19;;;12.24;nan
9935;BME280;5006;41.828;23.478;2023-04-01T01:58:56;89586.88;;;11.64;nan
9935;BME280;5006;41.828;23.478;2023-04-01T02:00:07;89582.03;;;11.78;nan
9935;BME280;5006;41.828;23.478;2023-04-01T02:01:20;89586.72;;;11.94;nan
9935;BME280;5006;41.828;23.478;2023-04-01T02:02:29;89588.13;;;12.02;nan
9935;BME280;5006;41.828;23.478;2023-04-01T02:03:37;89586.22;;;11.79;nan
9935;BME280;5006;41.828;23.478;2023-04-01T02:04:45;89585.53;;;11.52;nan
9935;BME280;5006;41.828;23.478;2023-04-01T02:05:52;89584.25;;;11.37;nan
9935;BME280;5006;41.828;23.478;2023-04-01T02:07:02;89580.78;;;11.37;nan
9935;BME280;5006;41.828;23.478;2023-04-01T02:08:13;89569.81;;;11.28;nan
9935;BME280;5006;41.828;23.478;2023-04-01T02:09:21;89581.63;;;11.07;nan
9935;BME280;5006;41.828;23.478;2023-04-01T02:10:26;89580.03;;;11.13;nan
9935;BME280;5006;41.828;23.478;2023-04-01T02:11:36;89572.13;;;11.03;nan
9935;BME280;5006;41.828;23.478;2023-04-01T02:12:44;89573.53;;;11.80;nan
9935;BME280;5006;41.828;23.478;2023-04-01T02:13:54;89578.97;;;11.57;nan
9935;BME280;5006;41.828;23.478;2023-04-01T02:15:03;89585.09;;;11.08;nan
9935;BME280;5006;41.828;23.478;2023-04-01T02:16:13;89571.00;;;10.74;nan
9935;BME280;5006;41.828;23.478;2023-04-01T02:17:22;89568.34;;;10.74;nan
9935;BME280;5006;41.828;23.478;2023-04-01T02:18:33;89555.53;;;11.11;nan
9935;BME280;5006;41.828;23.478;2023-04-01T02:19:43;89564.59;;;10.94;nan
9935;BME280;5006;41.828;23.478;2023-04-01T02:20:51;89568.47;;;11.16;nan
9935;BME280;5006;41.828;23.478;2023-04-01T02:21:58;89575.22;;;10.49;nan
9935;BME280;5006;41.828;23.478;2023-04-01T02:23:06;89577.97;;;10.42;nan
9935;BME280;5006;41.828;23.478;2023-04-01T02:24:14;89578.44;;;11.16;nan
9935;BME280;5006;41.828;23.478;2023-04-01T02:25:23;89575.81;;;11.12;nan
9935;BME280;5006;41.828;23.478;2023-04-01T02:26:29;89576.75;;;11.48;nan
9935;BME280;5006;41.828;23.478;2023-04-01T02:27:36;89573.34;;;11.21;nan
9935;BME280;5006;41.828;23.478;2023-04-01T02:28:42;89572.19;;;11.45;nan
9935;BME280;5006;41.828;23.478;2023-04-01T02:29:50;89571.31;;;11.29;nan
9935;BME280;5006;41.828;23.478;2023-04-01T02:30:55;89559.00;;;11.58;nan
9935;BME280;5006;41.828;23.478;2023-04-01T02:32:04;89561.41;;;11.26;nan
9935;BME280;5006;41.828;23.478;2023-04-01T02:33:10;89551.25;;;11.37;nan
9935;BME280;5006;41.828;23.478;2023-04-01T02:34:16;89550.78;;;11.42;nan
9935;BME280;5006;41.828;23.478;2023-04-01T02:35:21;89548.81;;;11.23;nan
9935;BME280;5006;41.828;23.478;2023-04-01T02:36:27;89546.78;;;10.55;nan
9935;BME280;5006;41.828;23.478;2023-04-01T02:37:31;89556.69;;;10.58;nan
9935;BME280;5006;41.828;23.478;2023-04-01T02:38:37;89556.56;;;10.38;nan
9935;BME280;5006;41.828;23.478;2023-04-01T02:39:44;89553.00;;;10.18;nan
9935;BME280;5006;41.828;23.478;2023-04-01T02:40:56;89554.03;;;9.61;nan
9935;BME280;5006;41.828;23.478;2023-04-01T02:42:01;89551.63;;;10.63;nan
9935;BME280;5006;41.828;23.478;2023-04-01T02:43:07;89550.06;;;10.66;nan
9935;BME280;5006;41.828;23.478;2023-04-01T02:44:13;89535.81;;;10.98;nan
9935;BME280;5006;41.828;23.478;2023-04-01T02:45:20;89535.00;;;11.24;nan
9935;BME280;5006;41.828;23.478;2023-04-01T02:46:25;89536.66;;;10.66;nan
9935;BME280;5006;41.828;23.478;2023-04-01T02:47:30;89537.47;;;10.89;nan
9935;BME280;5006;41.828;23.478;2023-04-01T02:48:35;89534.38;;;10.90;nan
9935;BME280;5006;41.828;23.478;2023-04-01T02:49:41;89539.06;;;10.86;nan
9935;BME280;5006;41.828;23.478;2023-04-01T02:50:46;89537.00;;;10.94;nan
9935;BME280;5006;41.828;23.478;2023-04-01T02:51:52;89538.00;;;10.54;nan
9935;BME280;5006;41.828;23.478;2023-04-01T02:52:56;89540.75;;;9.10;nan
9935;BME280;5006;41.828;23.478;2023-04-01T02:54:02;89535.34;;;10.21;nan
9935;BME280;5006;41.828;23.478;2023-04-01T02:55:09;89537.16;;;10.83;nan
9935;BME280;5006;41.828;23.478;2023-04-01T02:56:14;89535.69;;;10.79;nan
9935;BME280;5006;41.828;23.478;2023-04-01T02:57:19;89535.63;;;11.09;nan
9935;BME280;5006;41.828;23.478;2023-04-01T02:58:25;89540.69;;;11.03;nan
9935;BME280;5006;41.828;23.478;2023-04-01T02:59:30;89537.69;;;10.49;nan
9935;BME280;5006;41.828;23.478;2023-04-01T03:00:35;89542.94;;;10.56;nan
9935;BME280;5006;41.828;23.478;2023-04-01T03:01:40;89543.91;;;10.68;nan
9935;BME280;5006;41.828;23.478;2023-04-01T03:02:46;89535.59;;;10.33;nan
9935;BME280;5006;41.828;23.478;2023-04-01T03:03:51;89539.75;;;10.38;nan
9935;BME280;5006;41.828;23.478;2023-04-01T03:04:57;89529.97;;;11.03;nan
9935;BME280;5006;41.828;23.478;2023-04-01T03:06:05;89531.25;;;9.79;nan
9935;BME280;5006;41.828;23.478;2023-04-01T03:07:11;89526.84;;;9.62;nan
9935;BME280;5006;41.828;23.478;2023-04-01T03:08:16;89517.47;;;9.81;nan
9935;BME280;5006;41.828;23.478;2023-04-01T03:09:22;89517.84;;;11.18;nan
9935;BME280;5006;41.828;23.478;2023-04-01T03:10:28;89531.19;;;10.72;nan
9935;BME280;5006;41.828;23.478;2023-04-01T03:11:34;89525.78;;;10.50;nan
9935;BME280;5006;41.828;23.478;2023-04-01T03:12:39;89527.72;;;10.49;nan
9935;BME280;5006;41.828;23.478;2023-04-01T03:13:45;89529.97;;;10.24;nan
9935;BME280;5006;41.828;23.478;2023-04-01T03:14:51;89531.34;;;10.36;nan
9935;BME280;5006;41.828;23.478;2023-04-01T03:15:57;89530.59;;;10.05;nan
9935;BME280;5006;41.828;23.478;2023-04-01T03:17:02;89527.78;;;10.16;nan
9935;BME280;5006;41.828;23.478;2023-04-01T03:18:07;89526.69;;;10.40;nan
9935;BME280;5006;41.828;23.478;2023-04-01T03:19:12;89526.97;;;10.19;nan
9935;BME280;5006;41.828;23.478;2023-04-01T03:20:18;89529.84;;;10.35;nan
9935;BME280;5006;41.828;23.478;2023-04-01T03:21:24;89527.38;;;10.73;nan
9935;BME280;5006;41.828;23.478;2023-04-01T03:22:29;89530.38;;;10.23;nan
9935;BME280;5006;41.828;23.478;2023-04-01T03:23:34;89529.75;;;10.12;nan
9935;BME280;5006;41.828;23.478;2023-04-01T03:24:40;89532.63;;;9.61;nan
9935;BME280;5006;41.828;23.478;2023-04-01T03:25:47;89537.00;;;9.41;nan
9935;BME280;5006;41.828;23.478;2023-04-01T03:26:53;89525.50;;;9.44;nan
9935;BME280;5006;41.828;23.478;2023-04-01T03:27:59;89523.56;;;9.85;nan
9935;BME280;5006;41.828;23.478;2023-04-01T03:29:04;89523.97;;;10.13;nan
9935;BME280;5006;41.828;23.478;2023-04-01T03:30:10;89534.44;;;10.61;nan
9935;BME280;5006;41.828;23.478;2023-04-01T03:31:23;89524.53;;;9.98;nan
9935;BME280;5006;41.828;23.478;2023-04-01T03:32:33;89531.38;;;9.69;nan
9935;BME280;5006;41.828;23.478;2023-04-01T03:33:37;89531.84;;;9.60;nan
9935;BME280;5006;41.828;23.478;2023-04-01T03:34:43;89527.94;;;9.68;nan
9935;BME280;5006;41.828;23.478;2023-04-01T03:35:48;89520.47;;;9.86;nan
9935;BME280;5006;41.828;23.478;2023-04-01T03:36:57;89518.75;;;9.99;nan
9935;BME280;5006;41.828;23.478;2023-04-01T03:38:03;89521.59;;;10.49;nan
9935;BME280;5006;41.828;23.478;2023-04-01T03:39:08;89516.38;;;10.65;nan
9935;BME280;5006;41.828;23.478;2023-04-01T03:40:20;89522.75;;;10.74;nan
9935;BME280;5006;41.828;23.478;2023-04-01T03:41:27;89521.91;;;10.54;nan
9935;BME280;5006;41.828;23.478;2023-04-01T03:42:32;89512.69;;;10.55;nan
9935;BME280;5006;41.828;23.478;2023-04-01T03:43:37;89516.53;;;10.54;nan
9935;BME280;5006;41.828;23.478;2023-04-01T03:44:43;89513.19;;;10.47;nan
9935;BME280;5006;41.828;23.478;2023-04-01T03:45:51;89508.91;;;10.53;nan
9935;BME280;5006;41.828;23.478;2023-04-01T03:46:56;89511.03;;;10.65;nan
9935;BME280;5006;41.828;23.478;2023-04-01T03:48:01;89516.03;;;10.36;nan
9935;BME280;5006;41.828;23.478;2023-04-01T03:49:07;89517.72;;;9.60;nan
9935;BME280;5006;41.828;23.478;2023-04-01T03:50:15;89517.38;;;10.21;nan
9935;BME280;5006;41.828;23.478;2023-04-01T03:51:22;89516.50;;;9.98;nan
9935;BME280;5006;41.828;23.478;2023-04-01T03:52:26;89512.19;;;10.37;nan
9935;BME280;5006;41.828;23.478;2023-04-01T03:53:32;89514.25;;;10.53;nan
9935;BME280;5006;41.828;23.478;2023-04-01T03:54:38;89503.53;;;10.53;nan
9935;BME280;5006;41.828;23.478;2023-04-01T03:55:45;89513.44;;;10.56;nan
9935;BME280;5006;41.828;23.478;2023-04-01T03:56:50;89516.06;;;11.08;nan
9935;BME280;5006;41.828;23.478;2023-04-01T03:57:56;89518.94;;;10.98;nan
9935;BME280;5006;41.828;23.478;2023-04-01T03:59:02;89514.97;;;10.57;nan
9935;BME280;5006;41.828;23.478;2023-04-01T04:00:09;89502.19;;;10.41;nan
9935;BME280;5006;41.828;23.478;2023-04-01T04:01:19;89495.81;;;10.58;nan
9935;BME280;5006;41.828;23.478;2023-04-01T04:02:27;89499.84;;;10.92;nan
9935;BME280;5006;41.828;23.478;2023-04-01T04:03:32;89493.91;;;11.04;nan
9935;BME280;5006;41.828;23.478;2023-04-01T04:04:38;89493.28;;;10.97;nan
9935;BME280;5006;41.828;23.478;2023-04-01T04:05:46;89488.66;;;10.74;nan
9935;BME280;5006;41.828;23.478;2023-04-01T04:06:53;89492.31;;;10.61;nan
9935;BME280;5006;41.828;23.478;2023-04-01T04:08:00;89494.72;;;10.78;nan
9935;BME280;5006;41.828;23.478;2023-04-01T04:09:06;89497.56;;;10.91;nan
9935;BME280;5006;41.828;23.478;2023-04-01T04:10:10;89506.56;;;11.04;nan
9935;BME280;5006;41.828;23.478;2023-04-01T04:11:18;89492.16;;;10.94;nan
9935;BME280;5006;41.828;23.478;2023-04-01T04:12:25;89496.31;;;11.22;nan
9935;BME280;5006;41.828;23.478;2023-04-01T04:13:31;89491.94;;;11.08;nan
9935;BME280;5006;41.828;23.478;2023-04-01T04:14:39;89492.22;;;10.91;nan
9935;BME280;5006;41.828;23.478;2023-04-01T04:15:44;89505.88;;;11.00;nan
9935;BME280;5006;41.828;23.478;2023-04-01T04:16:49;89499.38;;;10.97;nan
9935;BME280;5006;41.828;23.478;2023-04-01T04:17:55;89500.56;;;10.96;nan
9935;BME280;5006;41.828;23.478;2023-04-01T04:19:00;89497.94;;;10.93;nan
9935;BME280;5006;41.828;23.478;2023-04-01T04:20:06;89488.91;;;11.06;nan
9935;BME280;5006;41.828;23.478;2023-04-01T04:21:13;89480.28;;;10.46;nan
9935;BME280;5006;41.828;23.478;2023-04-01T04:22:20;89481.28;;;11.05;nan
9935;BME280;5006;41.828;23.478;2023-04-01T04:23:25;89477.19;;;11.20;nan
9935;BME280;5006;41.828;23.478;2023-04-01T04:24:31;89483.78;;;11.15;nan
9935;BME280;5006;41.828;23.478;2023-04-01T04:25:53;89482.16;;;11.41;nan
9935;BME280;5006;41.828;23.478;2023-04-01T04:26:58;89476.44;;;11.39;nan
9935;BME280;5006;41.828;23.478;2023-04-01T04:28:05;89468.53;;;11.32;nan
9935;BME280;5006;41.828;23.478;2023-04-01T04:29:10;89474.09;;;10.98;nan
9935;BME280;5006;41.828;23.478;2023-04-01T04:30:16;89480.09;;;11.06;nan
9935;BME280;5006;41.828;23.478;2023-04-01T04:31:22;89473.97;;;11.05;nan
9935;BME280;5006;41.828;23.478;2023-04-01T04:32:29;89467.63;;;10.96;nan
9935;BME280;5006;41.828;23.478;2023-04-01T04:33:35;89458.16;;;10.88;nan
9935;BME280;5006;41.828;23.478;2023-04-01T04:34:41;89461.25;;;11.09;nan
9935;BME280;5006;41.828;23.478;2023-04-01T04:35:47;89452.75;;;11.14;nan
9935;BME280;5006;41.828;23.478;2023-04-01T04:36:52;89448.41;;;11.63;nan
9935;BME280;5006;41.828;23.478;2023-04-01T04:37:59;89446.63;;;11.56;nan
9935;BME280;5006;41.828;23.478;2023-04-01T04:39:04;89450.66;;;11.45;nan
9935;BME280;5006;41.828;23.478;2023-04-01T04:40:11;89456.13;;;11.61;nan
9935;BME280;5006;41.828;23.478;2023-04-01T04:41:18;89459.09;;;11.86;nan
9935;BME280;5006;41.828;23.478;2023-04-01T04:42:27;89457.03;;;11.08;nan
9935;BME280;5006;41.828;23.478;2023-04-01T04:43:41;89460.53;;;10.60;nan
9935;BME280;5006;41.828;23.478;2023-04-01T04:44:46;89465.53;;;10.84;nan
9935;BME280;5006;41.828;23.478;2023-04-01T04:45:51;89461.81;;;11.20;nan
9935;BME280;5006;41.828;23.478;2023-04-01T04:46:56;89464.50;;;10.97;nan
9935;BME280;5006;41.828;23.478;2023-04-01T04:48:02;89469.34;;;10.34;nan
9935;BME280;5006;41.828;23.478;2023-04-01T04:49:07;89469.22;;;10.14;nan
9935;BME280;5006;41.828;23.478;2023-04-01T04:50:12;89468.00;;;10.71;nan
9935;BME280;5006;41.828;23.478;2023-04-01T04:51:19;89462.63;;;10.71;nan
9935;BME280;5006;41.828;23.478;2023-04-01T04:52:25;89465.13;;;11.28;nan
9935;BME280;5006;41.828;23.478;2023-04-01T04:53:29;89462.97;;;11.42;nan
9935;BME280;5006;41.828;23.478;2023-04-01T04:54:36;89467.78;;;11.51;nan
9935;BME280;5006;41.828;23.478;2023-04-01T04:55:43;89464.13;;;11.41;nan
9935;BME280;5006;41.828;23.478;2023-04-01T04:57:06;89459.38;;;11.06;nan
9935;BME280;5006;41.828;23.478;2023-04-01T04:58:22;89460.06;;;11.53;nan
9935;BME280;5006;41.828;23.478;2023-04-01T04:59:30;89462.84;;;11.49;nan
9935;BME280;5006;41.828;23.478;2023-04-01T05:00:48;89470.31;;;11.19;nan
9935;BME280;5006;41.828;23.478;2023-04-01T05:02:07;89474.19;;;10.68;nan
9935;BME280;5006;41.828;23.478;2023-04-01T05:03:13;89478.22;;;11.03;nan
9935;BME280;5006;41.828;23.478;2023-04-01T05:04:19;89473.81;;;11.35;nan
9935;BME280;5006;41.828;23.478;2023-04-01T05:05:25;89466.47;;;11.62;nan
9935;BME280;5006;41.828;23.478;2023-04-01T05:06:30;89467.78;;;11.74;nan
9935;BME280;5006;41.828;23.478;2023-04-01T05:07:36;89469.69;;;11.93;nan
9935;BME280;5006;41.828;23.478;2023-04-01T05:08:41;89458.81;;;11.80;nan
9935;BME280;5006;41.828;23.478;2023-04-01T05:09:48;89451.78;;;11.67;nan
9935;BME280;5006;41.828;23.478;2023-04-01T05:10:53;89439.84;;;11.87;nan
9935;BME280;5006;41.828;23.478;2023-04-01T05:11:59;89440.75;;;12.00;nan
9935;BME280;5006;41.828;23.478;2023-04-01T05:13:10;89439.16;;;12.38;nan
9935;BME280;5006;41.828;23.478;2023-04-01T05:14:16;89438.28;;;12.25;nan
9935;BME280;5006;41.828;23.478;2023-04-01T05:15:28;89444.66;;;12.15;nan
9935;BME280;5006;41.828;23.478;2023-04-01T05:16:34;89442.78;;;12.12;nan
9935;BME280;5006;41.828;23.478;2023-04-01T05:17:38;89446.66;;;12.47;nan
9935;BME280;5006;41.828;23.478;2023-04-01T05:18:45;89437.34;;;12.83;nan
9935;BME280;5006;41.828;23.478;2023-04-01T05:19:52;89439.16;;;12.38;nan
9935;BME280;5006;41.828;23.478;2023-04-01T05:20:59;89428.38;;;12.89;nan
9935;BME280;5006;41.828;23.478;2023-04-01T05:22:04;89428.19;;;13.28;nan
9935;BME280;5006;41.828;23.478;2023-04-01T05:23:10;89426.94;;;12.85;nan
9935;BME280;5006;41.828;23.478;2023-04-01T05:24:15;89429.13;;;12.90;nan
9935;BME280;5006;41.828;23.478;2023-04-01T05:25:22;89434.66;;;12.83;nan
9935;BME280;5006;41.828;23.478;2023-04-01T05:26:28;89432.13;;;13.24;nan
9935;BME280;5006;41.828;23.478;2023-04-01T05:27:33;89434.00;;;13.11;nan
9935;BME280;5006;41.828;23.478;2023-04-01T05:28:39;89425.75;;;13.02;nan
9935;BME280;5006;41.828;23.478;2023-04-01T05:29:45;89423.22;;;12.63;nan
9935;BME280;5006;41.828;23.478;2023-04-01T05:31:17;89422.94;;;12.93;nan
9935;BME280;5006;41.828;23.478;2023-04-01T05:32:25;89421.53;;;12.85;nan
9935;BME280;5006;41.828;23.478;2023-04-01T05:33:30;89413.44;;;12.37;nan
9935;BME280;5006;41.828;23.478;2023-04-01T05:34:36;89417.16;;;12.43;nan
9935;BME280;5006;41.828;23.478;2023-04-01T05:35:41;89414.16;;;11.86;nan
9935;BME280;5006;41.828;23.478;2023-04-01T05:36:47;89411.22;;;11.61;nan
9935;BME280;5006;41.828;23.478;2023-04-01T05:37:53;89400.63;;;11.74;nan
9935;BME280;5006;41.828;23.478;2023-04-01T05:38:59;89410.41;;;11.64;nan
9935;BME280;5006;41.828;23.478;2023-04-01T05:40:06;89407.09;;;11.96;nan
9935;BME280;5006;41.828;23.478;2023-04-01T05:41:13;89408.94;;;11.99;nan
9935;BME280;5006;41.828;23.478;2023-04-01T05:42:21;89411.44;;;11.70;nan
9935;BME280;5006;41.828;23.478;2023-04-01T05:43:27;89410.88;;;11.59;nan
9935;BME280;5006;41.828;23.478;2023-04-01T05:44:34;89405.53;;;12.14;nan
9935;BME280;5006;41.828;23.478;2023-04-01T05:46:02;89408.16;;;11.98;nan
9935;BME280;5006;41.828;23.478;2023-04-01T05:47:30;89415.75;;;12.03;nan
9935;BME280;5006;41.828;23.478;2023-04-01T05:48:34;89413.28;;;11.73;nan
9935;BME280;5006;41.828;23.478;2023-04-01T05:49:40;89420.91;;;11.36;nan
9935;BME280;5006;41.828;23.478;2023-04-01T05:50:45;89418.88;;;11.20;nan
9935;BME280;5006;41.828;23.478;2023-04-01T05:51:51;89417.44;;;11.16;nan
9935;BME280;5006;41.828;23.478;2023-04-01T05:52:57;89409.31;;;11.19;nan
9935;BME280;5006;41.828;23.478;2023-04-01T05:54:04;89403.50;;;12.02;nan
9935;BME280;5006;41.828;23.478;2023-04-01T05:55:09;89397.59;;;11.91;nan
9935;BME280;5006;41.828;23.478;2023-04-01T05:56:14;89394.63;;;11.86;nan
9935;BME280;5006;41.828;23.478;2023-04-01T05:57:25;89402.03;;;12.33;nan
9935;BME280;5006;41.828;23.478;2023-04-01T05:58:30;89395.16;;;12.48;nan
9935;BME280;5006;41.828;23.478;2023-04-01T05:59:35;89389.47;;;12.11;nan
9935;BME280;5006;41.828;23.478;2023-04-01T06:00:42;89378.97;;;11.81;nan
9935;BME280;5006;41.828;23.478;2023-04-01T06:01:48;89384.84;;;12.11;nan
9935;BME280;5006;41.828;23.478;2023-04-01T06:02:54;89385.63;;;12.12;nan
9935;BME280;5006;41.828;23.478;2023-04-01T06:04:00;89389.94;;;12.57;nan
9935;BME280;5006;41.828;23.478;2023-04-01T06:05:13;89402.88;;;12.62;nan
9935;BME280;5006;41.828;23.478;2023-04-01T06:06:23;89402.31;;;12.87;nan
9935;BME280;5006;41.828;23.478;2023-04-01T06:07:31;89385.81;;;12.37;nan
9935;BME280;5006;41.828;23.478;2023-04-01T06:08:37;89377.38;;;12.19;nan
9935;BME280;5006;41.828;23.478;2023-04-01T06:09:41;89360.03;;;12.39;nan
9935;BME280;5006;41.828;23.478;2023-04-01T06:10:59;89363.22;;;12.98;nan
9935;BME280;5006;41.828;23.478;2023-04-01T06:12:37;89360.53;;;13.55;nan
9935;BME280;5006;41.828;23.478;2023-04-01T06:15:31;89352.03;;;14.10;nan
9935;BME280;5006;41.828;23.478;2023-04-01T06:16:46;89350.50;;;13.55;nan
9935;BME280;5006;41.828;23.478;2023-04-01T06:19:49;89361.38;;;13.52;nan
9935;BME280;5006;41.828;23.478;2023-04-01T06:21:03;89359.31;;;13.43;nan